sensor_id;sensor_type;location;lat;lon;timestamp;temperature;humidity
34726;DHT22;20951;50.818;4.344;2022-11-11T00:01:46;10.40;99.90
34726;DHT22;20951;50.818;4.344;2022-11-11T00:04:12;10.50;99.90
34726;DHT22;20951;50.818;4.344;2022-11-11T00:06:38;10.50;99.90
34726;DHT22;20951;50.818;4.344;2022-11-11T00:09:03;10.50;99.90
34726;DHT22;20951;50.818;4.344;2022-11-11T00:11:29;10.50;99.90
34726;DHT22;20951;50.818;4.344;2022-11-11T00:13:55;10.50;99.90
34726;DHT22;20951;50.818;4.344;2022-11-11T00:16:21;10.50;99.90
34726;DHT22;20951;50.818;4.344;2022-11-11T00:18:46;10.50;99.90
34726;DHT22;20951;50.818;4.344;2022-11-11T00:21:31;10.60;99.90
34726;DHT22;20951;50.818;4.344;2022-11-11T00:24:03;10.60;99.90
34726;DHT22;20951;50.818;4.344;2022-11-11T00:26:48;10.50;99.90
34726;DHT22;20951;50.818;4.344;2022-11-11T00:29:13;10.40;99.90
34726;DHT22;20951;50.818;4.344;2022-11-11T00:31:39;10.40;99.90
34726;DHT22;20951;50.818;4.344;2022-11-11T00:34:25;10.40;99.90
34726;DHT22;20951;50.818;4.344;2022-11-11T00:36:51;10.40;99.90
34726;DHT22;20951;50.818;4.344;2022-11-11T00:39:16;10.50;99.90
34726;DHT22;20951;50.818;4.344;2022-11-11T00:41:42;10.50;99.90
34726;DHT22;20951;50.818;4.344;2022-11-11T00:44:08;10.60;99.90
34726;DHT22;20951;50.818;4.344;2022-11-11T00:46:34;10.50;99.90
34726;DHT22;20951;50.818;4.344;2022-11-11T00:49:18;10.50;99.90
34726;DHT22;20951;50.818;4.344;2022-11-11T00:52:02;10.50;99.90
34726;DHT22;20951;50.818;4.344;2022-11-11T00:54:28;10.60;99.90
34726;DHT22;20951;50.818;4.344;2022-11-11T00:56:54;10.50;99.90
34726;DHT22;20951;50.818;4.344;2022-11-11T00:59:20;10.50;99.90
34726;DHT22;20951;50.818;4.344;2022-11-11T01:01:45;10.50;99.90
34726;DHT22;20951;50.818;4.344;2022-11-11T01:04:11;10.50;99.90
34726;DHT22;20951;50.818;4.344;2022-11-11T01:06:38;10.40;99.90
34726;DHT22;20951;50.818;4.344;2022-11-11T01:09:04;10.40;99.90
34726;DHT22;20951;50.818;4.344;2022-11-11T01:11:30;10.60;99.90
34726;DHT22;20951;50.818;4.344;2022-11-11T01:13:56;10.60;99.90
34726;DHT22;20951;50.818;4.344;2022-11-11T01:16:23;10.50;99.90
34726;DHT22;20951;50.818;4.344;2022-11-11T01:18:49;10.50;99.90
34726;DHT22;20951;50.818;4.344;2022-11-11T01:21:22;10.60;99.90
34726;DHT22;20951;50.818;4.344;2022-11-11T01:23:49;10.50;99.90
34726;DHT22;20951;50.818;4.344;2022-11-11T01:26:17;10.40;99.90
34726;DHT22;20951;50.818;4.344;2022-11-11T01:28:43;10.50;99.90
34726;DHT22;20951;50.818;4.344;2022-11-11T01:31:10;10.50;99.90
34726;DHT22;20951;50.818;4.344;2022-11-11T01:33:36;10.40;99.90
34726;DHT22;20951;50.818;4.344;2022-11-11T01:36:08;10.40;99.90
34726;DHT22;20951;50.818;4.344;2022-11-11T01:38:34;10.40;99.90
34726;DHT22;20951;50.818;4.344;2022-11-11T01:41:00;10.40;99.90
34726;DHT22;20951;50.818;4.344;2022-11-11T01:43:46;10.50;99.90
34726;DHT22;20951;50.818;4.344;2022-11-11T01:46:30;10.40;99.90
34726;DHT22;20951;50.818;4.344;2022-11-11T01:51:50;10.40;99.90
34726;DHT22;20951;50.818;4.344;2022-11-11T01:54:37;10.40;99.90
34726;DHT22;20951;50.818;4.344;2022-11-11T01:59:37;10.30;99.90
34726;DHT22;20951;50.818;4.344;2022-11-11T02:02:06;10.40;99.90
34726;DHT22;20951;50.818;4.344;2022-11-11T02:04:33;10.40;99.90
34726;DHT22;20951;50.818;4.344;2022-11-11T02:07:19;10.40;99.90
34726;DHT22;20951;50.818;4.344;2022-11-11T02:09:46;10.30;99.90
34726;DHT22;20951;50.818;4.344;2022-11-11T02:12:12;10.30;99.90
34726;DHT22;20951;50.818;4.344;2022-11-11T02:14:57;10.20;99.90
34726;DHT22;20951;50.818;4.344;2022-11-11T02:17:24;10.30;99.90
34726;DHT22;20951;50.818;4.344;2022-11-11T02:19:57;10.30;99.90
34726;DHT22;20951;50.818;4.344;2022-11-11T02:22:35;10.30;99.90
34726;DHT22;20951;50.818;4.344;2022-11-11T02:25:03;10.30;99.90
34726;DHT22;20951;50.818;4.344;2022-11-11T02:27:29;10.30;99.90
34726;DHT22;20951;50.818;4.344;2022-11-11T02:29:57;10.40;99.90
34726;DHT22;20951;50.818;4.344;2022-11-11T02:32:23;10.40;99.90
34726;DHT22;20951;50.818;4.344;2022-11-11T02:34:49;10.40;99.90
34726;DHT22;20951;50.818;4.344;2022-11-11T02:37:16;10.10;99.90
34726;DHT22;20951;50.818;4.344;2022-11-11T02:39:43;10.20;99.90
34726;DHT22;20951;50.818;4.344;2022-11-11T02:42:11;10.20;99.90
34726;DHT22;20951;50.818;4.344;2022-11-11T02:44:37;10.20;99.90
34726;DHT22;20951;50.818;4.344;2022-11-11T02:47:03;10.40;99.90
34726;DHT22;20951;50.818;4.344;2022-11-11T02:49:29;10.30;99.90
34726;DHT22;20951;50.818;4.344;2022-11-11T02:51:55;10.40;99.90
34726;DHT22;20951;50.818;4.344;2022-11-11T02:54:20;10.40;99.90
34726;DHT22;20951;50.818;4.344;2022-11-11T02:56:46;10.40;99.90
34726;DHT22;20951;50.818;4.344;2022-11-11T02:59:30;10.30;99.90
34726;DHT22;20951;50.818;4.344;2022-11-11T03:01:56;10.30;99.90
34726;DHT22;20951;50.818;4.344;2022-11-11T03:04:22;10.30;99.90
34726;DHT22;20951;50.818;4.344;2022-11-11T03:06:48;10.20;99.90
34726;DHT22;20951;50.818;4.344;2022-11-11T03:09:13;10.40;99.90
34726;DHT22;20951;50.818;4.344;2022-11-11T03:11:39;10.50;99.90
34726;DHT22;20951;50.818;4.344;2022-11-11T03:14:06;10.50;99.90
34726;DHT22;20951;50.818;4.344;2022-11-11T03:16:32;10.40;99.90
34726;DHT22;20951;50.818;4.344;2022-11-11T03:19:16;10.40;99.90
34726;DHT22;20951;50.818;4.344;2022-11-11T03:21:42;10.40;99.90
34726;DHT22;20951;50.818;4.344;2022-11-11T03:24:08;10.50;99.90
34726;DHT22;20951;50.818;4.344;2022-11-11T03:26:34;10.50;99.90
34726;DHT22;20951;50.818;4.344;2022-11-11T03:29:00;10.50;99.90
34726;DHT22;20951;50.818;4.344;2022-11-11T03:31:25;10.50;99.90
34726;DHT22;20951;50.818;4.344;2022-11-11T03:33:51;10.40;99.90
34726;DHT22;20951;50.818;4.344;2022-11-11T03:36:17;10.30;99.90
34726;DHT22;20951;50.818;4.344;2022-11-11T03:38:43;10.40;99.90
34726;DHT22;20951;50.818;4.344;2022-11-11T03:41:08;10.40;99.90
34726;DHT22;20951;50.818;4.344;2022-11-11T03:43:34;10.40;99.90
34726;DHT22;20951;50.818;4.344;2022-11-11T03:46:01;10.30;99.90
34726;DHT22;20951;50.818;4.344;2022-11-11T03:48:28;10.50;99.90
34726;DHT22;20951;50.818;4.344;2022-11-11T03:50:54;10.50;99.90
34726;DHT22;20951;50.818;4.344;2022-11-11T03:53:20;10.50;99.90
34726;DHT22;20951;50.818;4.344;2022-11-11T03:55:46;10.50;99.90
34726;DHT22;20951;50.818;4.344;2022-11-11T03:58:12;10.60;99.90
34726;DHT22;20951;50.818;4.344;2022-11-11T04:00:38;10.60;99.90
34726;DHT22;20951;50.818;4.344;2022-11-11T04:03:09;10.50;99.90
34726;DHT22;20951;50.818;4.344;2022-11-11T04:05:53;10.60;99.90
34726;DHT22;20951;50.818;4.344;2022-11-11T04:08:37;10.40;99.90
34726;DHT22;20951;50.818;4.344;2022-11-11T04:11:26;10.50;99.90
34726;DHT22;20951;50.818;4.344;2022-11-11T04:13:52;10.30;99.90
34726;DHT22;20951;50.818;4.344;2022-11-11T04:16:36;10.10;99.90
34726;DHT22;20951;50.818;4.344;2022-11-11T04:19:02;10.20;99.90
34726;DHT22;20951;50.818;4.344;2022-11-11T04:21:46;10.30;99.90
34726;DHT22;20951;50.818;4.344;2022-11-11T04:26:57;10.20;99.90
34726;DHT22;20951;50.818;4.344;2022-11-11T04:29:23;10.20;99.90
34726;DHT22;20951;50.818;4.344;2022-11-11T04:32:02;10.20;99.90
34726;DHT22;20951;50.818;4.344;2022-11-11T04:34:57;10.20;99.90
34726;DHT22;20951;50.818;4.344;2022-11-11T04:37:23;10.20;99.90
34726;DHT22;20951;50.818;4.344;2022-11-11T04:39:49;10.30;99.90
34726;DHT22;20951;50.818;4.344;2022-11-11T04:42:33;10.30;99.90
34726;DHT22;20951;50.818;4.344;2022-11-11T04:44:59;10.30;99.90
34726;DHT22;20951;50.818;4.344;2022-11-11T04:48:05;10.20;99.90
34726;DHT22;20951;50.818;4.344;2022-11-11T04:50:34;10.10;99.90
34726;DHT22;20951;50.818;4.344;2022-11-11T04:53:00;10.00;99.90
34726;DHT22;20951;50.818;4.344;2022-11-11T04:55:26;10.10;99.90
34726;DHT22;20951;50.818;4.344;2022-11-11T04:58:10;10.20;99.90
34726;DHT22;20951;50.818;4.344;2022-11-11T05:00:36;10.20;99.90
34726;DHT22;20951;50.818;4.344;2022-11-11T05:03:02;10.20;99.90
34726;DHT22;20951;50.818;4.344;2022-11-11T05:05:44;10.20;99.90
34726;DHT22;20951;50.818;4.344;2022-11-11T05:08:28;10.00;99.90
34726;DHT22;20951;50.818;4.344;2022-11-11T05:11:12;10.10;99.90
34726;DHT22;20951;50.818;4.344;2022-11-11T05:13:38;9.80;99.90
34726;DHT22;20951;50.818;4.344;2022-11-11T05:16:24;9.80;99.90
34726;DHT22;20951;50.818;4.344;2022-11-11T05:19:09;9.70;99.90
34726;DHT22;20951;50.818;4.344;2022-11-11T05:21:53;9.70;99.90
34726;DHT22;20951;50.818;4.344;2022-11-11T05:24:20;9.70;99.90
34726;DHT22;20951;50.818;4.344;2022-11-11T05:27:04;9.70;99.90
34726;DHT22;20951;50.818;4.344;2022-11-11T05:29:30;9.80;99.90
34726;DHT22;20951;50.818;4.344;2022-11-11T05:31:56;9.80;99.90
34726;DHT22;20951;50.818;4.344;2022-11-11T05:34:21;9.80;99.90
34726;DHT22;20951;50.818;4.344;2022-11-11T05:36:47;9.70;99.90
34726;DHT22;20951;50.818;4.344;2022-11-11T05:39:13;9.70;99.90
34726;DHT22;20951;50.818;4.344;2022-11-11T05:41:39;9.60;99.90
34726;DHT22;20951;50.818;4.344;2022-11-11T05:44:04;9.60;99.90
34726;DHT22;20951;50.818;4.344;2022-11-11T05:46:30;9.70;99.90
34726;DHT22;20951;50.818;4.344;2022-11-11T05:48:56;9.70;99.90
34726;DHT22;20951;50.818;4.344;2022-11-11T05:51:40;9.70;99.90
34726;DHT22;20951;50.818;4.344;2022-11-11T05:54:06;9.70;99.90
34726;DHT22;20951;50.818;4.344;2022-11-11T05:56:32;9.60;99.90
34726;DHT22;20951;50.818;4.344;2022-11-11T05:58:57;9.50;99.90
34726;DHT22;20951;50.818;4.344;2022-11-11T06:01:23;9.70;99.90
34726;DHT22;20951;50.818;4.344;2022-11-11T06:03:49;9.60;99.90
34726;DHT22;20951;50.818;4.344;2022-11-11T06:06:15;9.50;99.90
34726;DHT22;20951;50.818;4.344;2022-11-11T06:08:40;9.60;99.90
34726;DHT22;20951;50.818;4.344;2022-11-11T06:11:06;9.60;99.90
34726;DHT22;20951;50.818;4.344;2022-11-11T06:13:32;9.80;99.90
34726;DHT22;20951;50.818;4.344;2022-11-11T06:16:00;9.80;99.90
34726;DHT22;20951;50.818;4.344;2022-11-11T06:18:27;9.70;99.90
34726;DHT22;20951;50.818;4.344;2022-11-11T06:20:55;9.70;99.90
34726;DHT22;20951;50.818;4.344;2022-11-11T06:23:22;9.80;99.90
34726;DHT22;20951;50.818;4.344;2022-11-11T06:25:49;9.70;99.90
34726;DHT22;20951;50.818;4.344;2022-11-11T06:28:34;9.60;99.90
34726;DHT22;20951;50.818;4.344;2022-11-11T06:31:01;9.60;99.90
34726;DHT22;20951;50.818;4.344;2022-11-11T06:33:29;9.50;99.90
34726;DHT22;20951;50.818;4.344;2022-11-11T06:35:57;9.40;99.90
34726;DHT22;20951;50.818;4.344;2022-11-11T06:38:24;9.40;99.90
34726;DHT22;20951;50.818;4.344;2022-11-11T06:40:52;9.30;99.90
34726;DHT22;20951;50.818;4.344;2022-11-11T06:43:20;9.30;99.90
34726;DHT22;20951;50.818;4.344;2022-11-11T06:45:51;9.20;99.90
34726;DHT22;20951;50.818;4.344;2022-11-11T06:48:18;9.30;99.90
34726;DHT22;20951;50.818;4.344;2022-11-11T06:50:45;9.30;99.90
34726;DHT22;20951;50.818;4.344;2022-11-11T06:53:14;9.30;99.90
34726;DHT22;20951;50.818;4.344;2022-11-11T06:55:41;9.40;99.90
34726;DHT22;20951;50.818;4.344;2022-11-11T06:58:13;9.30;99.90
34726;DHT22;20951;50.818;4.344;2022-11-11T07:00:43;9.30;99.90
34726;DHT22;20951;50.818;4.344;2022-11-11T07:03:11;9.40;99.90
34726;DHT22;20951;50.818;4.344;2022-11-11T07:05:38;9.50;99.90
34726;DHT22;20951;50.818;4.344;2022-11-11T07:08:13;9.30;99.90
34726;DHT22;20951;50.818;4.344;2022-11-11T07:10:42;9.20;99.90
34726;DHT22;20951;50.818;4.344;2022-11-11T07:13:10;9.30;99.90
34726;DHT22;20951;50.818;4.344;2022-11-11T07:15:37;9.20;99.90
34726;DHT22;20951;50.818;4.344;2022-11-11T07:18:04;9.20;99.90
34726;DHT22;20951;50.818;4.344;2022-11-11T07:20:32;9.20;99.90
34726;DHT22;20951;50.818;4.344;2022-11-11T07:22:59;9.30;99.90
34726;DHT22;20951;50.818;4.344;2022-11-11T07:25:27;9.40;99.90
34726;DHT22;20951;50.818;4.344;2022-11-11T07:27:54;9.30;99.90
34726;DHT22;20951;50.818;4.344;2022-11-11T07:30:24;9.40;99.90
34726;DHT22;20951;50.818;4.344;2022-11-11T07:32:52;9.50;99.90
34726;DHT22;20951;50.818;4.344;2022-11-11T07:35:19;9.50;99.90
34726;DHT22;20951;50.818;4.344;2022-11-11T07:37:46;9.70;99.90
34726;DHT22;20951;50.818;4.344;2022-11-11T07:40:14;9.70;99.90
34726;DHT22;20951;50.818;4.344;2022-11-11T07:42:43;9.70;99.90
34726;DHT22;20951;50.818;4.344;2022-11-11T07:45:11;9.50;99.90
34726;DHT22;20951;50.818;4.344;2022-11-11T07:47:37;9.50;99.90
34726;DHT22;20951;50.818;4.344;2022-11-11T07:50:06;9.60;99.90
34726;DHT22;20951;50.818;4.344;2022-11-11T07:52:33;9.50;99.90
34726;DHT22;20951;50.818;4.344;2022-11-11T07:55:01;9.70;99.90
34726;DHT22;20951;50.818;4.344;2022-11-11T07:57:29;9.70;99.90
34726;DHT22;20951;50.818;4.344;2022-11-11T07:59:57;9.60;99.90
34726;DHT22;20951;50.818;4.344;2022-11-11T08:02:24;9.70;99.90
34726;DHT22;20951;50.818;4.344;2022-11-11T08:04:52;9.70;99.90
34726;DHT22;20951;50.818;4.344;2022-11-11T08:07:19;9.80;99.90
34726;DHT22;20951;50.818;4.344;2022-11-11T08:09:46;9.90;99.90
34726;DHT22;20951;50.818;4.344;2022-11-11T08:12:14;9.90;99.90
34726;DHT22;20951;50.818;4.344;2022-11-11T08:14:58;9.90;99.90
34726;DHT22;20951;50.818;4.344;2022-11-11T08:17:26;9.90;99.90
34726;DHT22;20951;50.818;4.344;2022-11-11T08:19:54;10.10;99.90
34726;DHT22;20951;50.818;4.344;2022-11-11T08:22:22;10.00;99.90
34726;DHT22;20951;50.818;4.344;2022-11-11T08:24:50;9.90;99.90
34726;DHT22;20951;50.818;4.344;2022-11-11T08:27:17;9.90;99.90
34726;DHT22;20951;50.818;4.344;2022-11-11T08:29:45;10.00;99.90
34726;DHT22;20951;50.818;4.344;2022-11-11T08:32:12;10.00;99.90
34726;DHT22;20951;50.818;4.344;2022-11-11T08:34:40;10.00;99.90
34726;DHT22;20951;50.818;4.344;2022-11-11T08:37:08;10.20;99.90
34726;DHT22;20951;50.818;4.344;2022-11-11T08:39:36;10.30;99.90
34726;DHT22;20951;50.818;4.344;2022-11-11T08:42:03;10.40;99.90
34726;DHT22;20951;50.818;4.344;2022-11-11T08:44:31;10.30;99.90
34726;DHT22;20951;50.818;4.344;2022-11-11T08:46:59;10.30;99.90
34726;DHT22;20951;50.818;4.344;2022-11-11T08:49:26;10.50;99.90
34726;DHT22;20951;50.818;4.344;2022-11-11T08:51:54;10.50;99.90
34726;DHT22;20951;50.818;4.344;2022-11-11T08:54:21;10.50;99.90
34726;DHT22;20951;50.818;4.344;2022-11-11T08:56:49;10.40;99.90
34726;DHT22;20951;50.818;4.344;2022-11-11T08:59:17;10.30;99.90
34726;DHT22;20951;50.818;4.344;2022-11-11T09:01:44;10.30;99.90
34726;DHT22;20951;50.818;4.344;2022-11-11T09:04:13;10.40;99.90
34726;DHT22;20951;50.818;4.344;2022-11-11T09:06:41;10.50;99.90
34726;DHT22;20951;50.818;4.344;2022-11-11T09:09:10;10.40;99.90
34726;DHT22;20951;50.818;4.344;2022-11-11T09:11:37;10.40;99.90
34726;DHT22;20951;50.818;4.344;2022-11-11T09:14:05;10.40;99.90
34726;DHT22;20951;50.818;4.344;2022-11-11T09:16:32;10.60;99.90
34726;DHT22;20951;50.818;4.344;2022-11-11T09:19:00;10.50;99.90
34726;DHT22;20951;50.818;4.344;2022-11-11T09:21:28;10.40;99.90
34726;DHT22;20951;50.818;4.344;2022-11-11T09:23:56;10.60;99.90
34726;DHT22;20951;50.818;4.344;2022-11-11T09:26:25;10.80;99.90
34726;DHT22;20951;50.818;4.344;2022-11-11T09:28:53;10.70;99.90
34726;DHT22;20951;50.818;4.344;2022-11-11T09:31:20;10.80;99.90
34726;DHT22;20951;50.818;4.344;2022-11-11T09:33:51;10.90;99.90
34726;DHT22;20951;50.818;4.344;2022-11-11T09:36:18;10.90;99.90
34726;DHT22;20951;50.818;4.344;2022-11-11T09:38:45;11.10;99.90
34726;DHT22;20951;50.818;4.344;2022-11-11T09:41:26;11.20;99.90
34726;DHT22;20951;50.818;4.344;2022-11-11T09:43:59;11.30;99.90
34726;DHT22;20951;50.818;4.344;2022-11-11T09:51:30;11.40;99.90
34726;DHT22;20951;50.818;4.344;2022-11-11T09:54:03;11.50;99.90
34726;DHT22;20951;50.818;4.344;2022-11-11T09:56:31;11.60;99.90
34726;DHT22;20951;50.818;4.344;2022-11-11T09:59:03;11.60;99.90
34726;DHT22;20951;50.818;4.344;2022-11-11T10:01:43;11.70;99.90
34726;DHT22;20951;50.818;4.344;2022-11-11T10:04:16;11.80;99.90
34726;DHT22;20951;50.818;4.344;2022-11-11T10:06:46;11.90;99.90
34726;DHT22;20951;50.818;4.344;2022-11-11T10:14:14;11.80;99.90
34726;DHT22;20951;50.818;4.344;2022-11-11T10:20:13;11.70;99.90
34726;DHT22;20951;50.818;4.344;2022-11-11T10:22:20;11.80;99.90
34726;DHT22;20951;50.818;4.344;2022-11-11T10:25:01;12.00;99.90
34726;DHT22;20951;50.818;4.344;2022-11-11T10:27:29;12.10;99.90
34726;DHT22;20951;50.818;4.344;2022-11-11T10:29:57;12.20;99.90
34726;DHT22;20951;50.818;4.344;2022-11-11T10:32:25;12.30;99.90
34726;DHT22;20951;50.818;4.344;2022-11-11T10:34:54;12.30;99.90
34726;DHT22;20951;50.818;4.344;2022-11-11T10:37:28;12.20;99.90
34726;DHT22;20951;50.818;4.344;2022-11-11T10:40:02;12.30;99.90
34726;DHT22;20951;50.818;4.344;2022-11-11T10:42:31;12.40;99.90
34726;DHT22;20951;50.818;4.344;2022-11-11T10:44:59;12.50;99.90
34726;DHT22;20951;50.818;4.344;2022-11-11T10:52:40;12.70;99.90
34726;DHT22;20951;50.818;4.344;2022-11-11T10:55:13;12.80;99.90
34726;DHT22;20951;50.818;4.344;2022-11-11T11:00:12;13.10;99.90
34726;DHT22;20951;50.818;4.344;2022-11-11T11:07:40;13.20;99.90
34726;DHT22;20951;50.818;4.344;2022-11-11T11:10:20;13.30;99.90
34726;DHT22;20951;50.818;4.344;2022-11-11T11:12:58;13.20;99.90
34726;DHT22;20951;50.818;4.344;2022-11-11T11:15:29;13.30;99.90
34726;DHT22;20951;50.818;4.344;2022-11-11T11:18:00;13.50;99.90
34726;DHT22;20951;50.818;4.344;2022-11-11T11:20:28;13.60;99.90
34726;DHT22;20951;50.818;4.344;2022-11-11T11:22:56;13.70;99.90
34726;DHT22;20951;50.818;4.344;2022-11-11T11:25:24;13.60;99.90
34726;DHT22;20951;50.818;4.344;2022-11-11T11:27:52;13.60;99.90
34726;DHT22;20951;50.818;4.344;2022-11-11T11:30:30;13.70;99.90
34726;DHT22;20951;50.818;4.344;2022-11-11T11:32:58;13.80;99.90
34726;DHT22;20951;50.818;4.344;2022-11-11T11:35:36;13.90;99.90
34726;DHT22;20951;50.818;4.344;2022-11-11T11:38:08;14.00;99.90
34726;DHT22;20951;50.818;4.344;2022-11-11T11:40:54;14.10;99.90
34726;DHT22;20951;50.818;4.344;2022-11-11T11:43:23;14.10;99.90
34726;DHT22;20951;50.818;4.344;2022-11-11T11:45:57;14.10;99.90
34726;DHT22;20951;50.818;4.344;2022-11-11T11:51:08;14.20;99.90
34726;DHT22;20951;50.818;4.344;2022-11-11T11:53:47;14.40;99.90
34726;DHT22;20951;50.818;4.344;2022-11-11T12:01:33;14.70;99.90
34726;DHT22;20951;50.818;4.344;2022-11-11T12:20:01;15.40;99.90
34726;DHT22;20951;50.818;4.344;2022-11-11T12:25:19;15.50;99.90
34726;DHT22;20951;50.818;4.344;2022-11-11T12:27:52;15.60;99.90
34726;DHT22;20951;50.818;4.344;2022-11-11T12:30:21;15.40;99.90
34726;DHT22;20951;50.818;4.344;2022-11-11T12:38:16;15.50;99.90
34726;DHT22;20951;50.818;4.344;2022-11-11T12:46:24;15.40;99.90
34726;DHT22;20951;50.818;4.344;2022-11-11T12:49:39;15.40;99.90
34726;DHT22;20951;50.818;4.344;2022-11-11T12:52:32;15.40;99.90
34726;DHT22;20951;50.818;4.344;2022-11-11T13:00:04;15.40;99.90
34726;DHT22;20951;50.818;4.344;2022-11-11T13:05:13;15.30;99.90
34726;DHT22;20951;50.818;4.344;2022-11-11T13:13:27;15.60;99.90
34726;DHT22;20951;50.818;4.344;2022-11-11T13:15:55;15.60;99.90
34726;DHT22;20951;50.818;4.344;2022-11-11T13:18:29;15.60;99.90
34726;DHT22;20951;50.818;4.344;2022-11-11T13:21:03;15.50;99.90
34726;DHT22;20951;50.818;4.344;2022-11-11T13:23:32;15.70;99.90
34726;DHT22;20951;50.818;4.344;2022-11-11T13:26:01;15.80;99.90
34726;DHT22;20951;50.818;4.344;2022-11-11T13:28:33;16.00;99.90
34726;DHT22;20951;50.818;4.344;2022-11-11T13:31:37;16.00;99.90
34726;DHT22;20951;50.818;4.344;2022-11-11T13:33:57;16.10;99.90
34726;DHT22;20951;50.818;4.344;2022-11-11T13:36:40;16.10;99.90
34726;DHT22;20951;50.818;4.344;2022-11-11T13:39:10;16.10;99.90
34726;DHT22;20951;50.818;4.344;2022-11-11T13:41:48;15.90;99.90
34726;DHT22;20951;50.818;4.344;2022-11-11T13:44:25;15.90;99.90
34726;DHT22;20951;50.818;4.344;2022-11-11T13:46:57;15.60;99.90
34726;DHT22;20951;50.818;4.344;2022-11-11T13:55:07;15.60;99.90
34726;DHT22;20951;50.818;4.344;2022-11-11T13:57:42;15.40;99.90
34726;DHT22;20951;50.818;4.344;2022-11-11T14:02:43;15.50;99.90
34726;DHT22;20951;50.818;4.344;2022-11-11T14:05:15;15.50;99.90
34726;DHT22;20951;50.818;4.344;2022-11-11T14:17:59;15.60;99.90
34726;DHT22;20951;50.818;4.344;2022-11-11T14:20:33;15.40;99.90
34726;DHT22;20951;50.818;4.344;2022-11-11T14:23:21;15.30;99.90
34726;DHT22;20951;50.818;4.344;2022-11-11T14:25:49;15.20;99.90
34726;DHT22;20951;50.818;4.344;2022-11-11T14:30:50;15.00;99.90
34726;DHT22;20951;50.818;4.344;2022-11-11T14:33:20;15.10;99.90
34726;DHT22;20951;50.818;4.344;2022-11-11T14:35:55;15.10;99.90
34726;DHT22;20951;50.818;4.344;2022-11-11T14:40:49;14.90;99.90
34726;DHT22;20951;50.818;4.344;2022-11-11T14:43:34;14.90;99.90
34726;DHT22;20951;50.818;4.344;2022-11-11T14:46:02;14.80;99.90
34726;DHT22;20951;50.818;4.344;2022-11-11T14:54:19;14.60;99.90
34726;DHT22;20951;50.818;4.344;2022-11-11T14:57:01;14.60;99.90
34726;DHT22;20951;50.818;4.344;2022-11-11T14:59:30;14.60;99.90
34726;DHT22;20951;50.818;4.344;2022-11-11T15:01:58;14.60;99.90
34726;DHT22;20951;50.818;4.344;2022-11-11T15:04:26;14.70;99.90
34726;DHT22;20951;50.818;4.344;2022-11-11T15:12:04;14.50;99.90
34726;DHT22;20951;50.818;4.344;2022-11-11T15:17:15;14.50;99.90
34726;DHT22;20951;50.818;4.344;2022-11-11T15:22:44;14.30;99.90
34726;DHT22;20951;50.818;4.344;2022-11-11T15:28:06;14.10;99.90
